Terminal Aerodrome Forecast
Issued by NWS Bismarck, ND

Home | Current Version | Previous Version | Text Only | Print | Product List | Glossary Off
Versions: 1 2 3 4 5 6 7 8 9 10 11 12 13 14 15 16

433
FTUS43 KBIS 222320
TAFISN
TAF
KISN 222320Z 2300/2324 23013KT P6SM SCT090
     FM230200 24009KT P6SM SCT150
     FM231600 24013KT P6SM SCT250=

USA.gov is the U.S. government's official web portal to all federal, state and local government web resources and services.